Time;durP1;ratioP1;P1;durP2;ratioP2;P2;SDS_P1;SDS_P2;PMS_P1;PMS_P2;Temp;Humidity;BMP_temperature;BMP_pressure;BME280_temperature;BME280_humidity;BME280_pressure;Samples;Min_cycle;Max_cycle;Signal;HPM_P1;HPM_P2
2023/04/27 00:00:42;;;;;;;26.15;17.05;;;;;;;;;;5013637;28;20029;-72
2023/04/27 00:03:08;;;;;;;37.75;22.58;;;;;;;;;;5013679;28;20028;-71
2023/04/27 00:05:37;;;;;;;29.45;18.38;;;;;;;;;;5012713;28;20060;-74
2023/04/27 00:08:03;;;;;;;;;;;;;;;;;;5002478;28;20017;-72
2023/04/27 00:10:28;;;;;;;29.77;18.63;;;;;;;;;;5012330;28;19916;-75
2023/04/27 00:12:53;;;;;;;34.08;21.45;;;;;;;;;;5012762;28;20325;-73
2023/04/27 00:15:19;;;;;;;30.30;18.40;;;;;;;;;;5013486;28;20344;-71
2023/04/27 00:17:44;;;;;;;27.85;14.88;;;;;;;;;;5013763;28;20028;-73
2023/04/27 00:20:11;;;;;;;31.80;16.17;;;;;;;;;;5012436;28;20448;-72
2023/04/27 00:22:37;;;;;;;25.15;13.88;;;;;;;;;;5014220;28;20025;-72
2023/04/27 00:25:02;;;;;;;29.95;17.23;;;;;;;;;;5010770;28;20445;-72
2023/04/27 00:27:28;;;;;;;23.15;11.32;;;;;;;;;;5012704;28;20164;-70
2023/04/27 00:29:53;;;;;;;15.55;8.18;;;;;;;;;;5009442;28;20367;-74
2023/04/27 00:32:18;;;;;;;13.20;7.80;;;;;;;;;;5006098;28;20030;-72
2023/04/27 00:34:44;;;;;;;22.60;15.07;;;;;;;;;;5012932;28;20026;-71
2023/04/27 00:37:09;;;;;;;19.25;10.18;;;;;;;;;;5010102;28;20208;-73
2023/04/27 00:39:35;;;;;;;21.63;12.88;;;;;;;;;;5005398;28;20151;-72
2023/04/27 00:42:00;;;;;;;27.50;13.98;;;;;;;;;;5011987;28;20037;-70
2023/04/27 00:44:26;;;;;;;23.23;14.65;;;;;;;;;;5011749;28;20112;-71
2023/04/27 00:46:52;;;;;;;27.85;15.60;;;;;;;;;;5009517;28;20369;-71
2023/04/27 00:49:18;;;;;;;28.80;15.95;;;;;;;;;;5011695;28;20040;-73
2023/04/27 00:51:43;;;;;;;27.48;15.60;;;;;;;;;;5013211;28;20467;-72
2023/04/27 00:54:09;;;;;;;39.33;24.40;;;;;;;;;;5013391;28;20075;-72
2023/04/27 00:56:35;;;;;;;32.63;20.05;;;;;;;;;;5013595;28;20064;-71
2023/04/27 00:59:00;;;;;;;24.27;15.55;;;;;;;;;;5012990;28;20352;-74
2023/04/27 01:01:26;;;;;;;20.35;12.88;;;;;;;;;;5011524;28;20048;-71
2023/04/27 01:03:51;;;;;;;18.92;11.18;;;;;;;;;;5014607;28;20021;-71
2023/04/27 01:06:17;;;;;;;20.65;13.18;;;;;;;;;;5013372;28;20025;-72
2023/04/27 01:08:42;;;;;;;20.60;12.15;;;;;;;;;;5011580;28;20026;-74
2023/04/27 01:11:08;;;;;;;27.55;17.55;;;;;;;;;;5012138;28;20040;-72
2023/04/27 01:13:33;;;;;;;85.00;56.25;;;;;;;;;;5013285;28;20038;-72
2023/04/27 01:15:58;;;;;;;63.10;42.80;;;;;;;;;;5005907;28;20033;-72
2023/04/27 01:18:24;;;;;;;37.35;24.92;;;;;;;;;;5002773;28;20078;-72
2023/04/27 01:20:50;;;;;;;21.60;14.20;;;;;;;;;;5006117;28;20041;-73
2023/04/27 01:23:15;;;;;;;23.77;13.20;;;;;;;;;;5004103;28;20353;-70
2023/04/27 01:25:40;;;;;;;20.35;13.52;;;;;;;;;;5002814;28;20086;-73
2023/04/27 01:28:06;;;;;;;27.23;14.20;;;;;;;;;;5003546;28;20440;-72
2023/04/27 01:30:31;;;;;;;15.80;11.50;;;;;;;;;;5002531;28;20153;-73
2023/04/27 01:32:56;;;;;;;18.83;13.57;;;;;;;;;;5011560;28;20464;-71
2023/04/27 01:35:22;;;;;;;20.60;12.90;;;;;;;;;;5015495;28;20510;-71
2023/04/27 01:37:47;;;;;;;13.25;9.27;;;;;;;;;;5004628;28;20604;-75
2023/04/27 01:40:13;;;;;;;10.60;6.85;;;;;;;;;;5015796;28;20040;-72
2023/04/27 01:42:38;;;;;;;11.73;7.97;;;;;;;;;;5014959;28;20599;-71
2023/04/27 01:45:04;;;;;;;10.90;7.70;;;;;;;;;;5015487;28;20357;-71
2023/04/27 01:47:29;;;;;;;16.98;8.77;;;;;;;;;;5013765;28;20037;-71
2023/04/27 01:49:54;;;;;;;10.70;7.18;;;;;;;;;;5014070;28;20034;-70
2023/04/27 01:52:20;;;;;;;10.38;7.40;;;;;;;;;;5015744;28;20017;-71
2023/04/27 01:54:45;;;;;;;14.15;8.52;;;;;;;;;;5014298;28;20038;-72
2023/04/27 01:57:11;;;;;;;17.35;11.85;;;;;;;;;;5014666;28;20032;-71
2023/04/27 01:59:36;;;;;;;23.80;17.92;;;;;;;;;;5015884;28;20030;-75
2023/04/27 02:02:01;;;;;;;18.65;13.10;;;;;;;;;;5005816;28;20512;-71
2023/04/27 02:04:27;;;;;;;18.58;9.13;;;;;;;;;;5015169;28;20108;-70
2023/04/27 02:06:52;;;;;;;12.00;7.13;;;;;;;;;;5015924;28;20029;-71
2023/04/27 02:09:17;;;;;;;8.20;5.78;;;;;;;;;;5012806;28;20063;-71
2023/04/27 02:11:43;;;;;;;9.45;6.40;;;;;;;;;;5015169;28;20065;-71
2023/04/27 02:14:08;;;;;;;11.73;6.82;;;;;;;;;;5016216;28;20529;-71
2023/04/27 02:16:33;;;;;;;10.10;6.35;;;;;;;;;;5011213;28;20021;-71
2023/04/27 02:18:59;;;;;;;13.05;9.35;;;;;;;;;;5009018;28;20030;-70
2023/04/27 02:21:24;;;;;;;14.90;9.75;;;;;;;;;;5012618;28;20467;-72
2023/04/27 02:23:50;;;;;;;12.68;7.90;;;;;;;;;;5014389;28;20018;-71
2023/04/27 02:26:16;;;;;;;10.50;7.40;;;;;;;;;;5014189;28;20445;-71
2023/04/27 02:28:42;;;;;;;11.43;7.20;;;;;;;;;;5012698;28;20576;-71
2023/04/27 02:31:07;;;;;;;13.63;8.40;;;;;;;;;;5014262;28;20029;-71
2023/04/27 02:33:32;;;;;;;10.57;6.18;;;;;;;;;;5013827;28;20463;-71
2023/04/27 02:35:58;;;;;;;8.15;5.43;;;;;;;;;;5011482;28;20041;-70
2023/04/27 02:38:23;;;;;;;14.65;4.80;;;;;;;;;;5014568;28;20025;-73
2023/04/27 02:40:52;;;;;;;7.20;4.57;;;;;;;;;;5015092;28;20033;-71
2023/04/27 02:43:17;;;;;;;9.95;6.43;;;;;;;;;;5015355;28;20040;-69
2023/04/27 02:45:43;;;;;;;11.23;5.88;;;;;;;;;;5014793;28;20022;-70
2023/04/27 02:48:08;;;;;;;6.65;4.80;;;;;;;;;;5012495;28;20026;-73
2023/04/27 02:50:38;;;;;;;7.22;4.63;;;;;;;;;;5016787;28;20098;-73
2023/04/27 02:53:04;;;;;;;8.15;5.35;;;;;;;;;;5012973;28;20049;-74
2023/04/27 02:55:29;;;;;;;7.00;4.32;;;;;;;;;;5007973;28;20068;-72
2023/04/27 02:57:55;;;;;;;9.15;4.38;;;;;;;;;;5002366;28;20065;-71
2023/04/27 03:00:20;;;;;;;7.93;4.45;;;;;;;;;;5013771;28;20032;-73
2023/04/27 03:02:46;;;;;;;11.00;5.28;;;;;;;;;;5009172;28;20029;-70
2023/04/27 03:05:11;;;;;;;7.25;4.45;;;;;;;;;;5007970;28;20549;-71
2023/04/27 03:07:37;;;;;;;10.40;6.05;;;;;;;;;;5015751;28;20434;-72
2023/04/27 03:10:02;;;;;;;9.15;5.75;;;;;;;;;;5015158;28;20033;-71
2023/04/27 03:12:28;;;;;;;10.60;5.95;;;;;;;;;;5006646;28;20134;-73
2023/04/27 03:14:53;;;;;;;11.82;6.15;;;;;;;;;;5007950;28;20025;-74
2023/04/27 03:17:18;;;;;;;12.18;6.90;;;;;;;;;;5015108;28;20025;-70
2023/04/27 03:19:45;;;;;;;7.85;5.25;;;;;;;;;;5014161;28;20348;-71
2023/04/27 03:22:11;;;;;;;6.15;4.75;;;;;;;;;;5012959;28;20037;-72
2023/04/27 03:24:36;;;;;;;10.77;5.18;;;;;;;;;;5015487;28;20025;-74
2023/04/27 03:27:01;;;;;;;11.50;7.43;;;;;;;;;;5014304;28;20072;-70
2023/04/27 03:29:27;;;;;;;12.48;8.20;;;;;;;;;;5013101;28;20468;-71
2023/04/27 03:31:52;;;;;;;12.18;7.47;;;;;;;;;;5013657;28;20457;-74
2023/04/27 03:34:19;;;;;;;9.70;6.75;;;;;;;;;;5014899;28;20364;-71
2023/04/27 03:36:45;;;;;;;11.13;7.30;;;;;;;;;;5012650;28;20712;-73
2023/04/27 03:39:10;;;;;;;11.70;7.78;;;;;;;;;;5013517;28;20593;-74
2023/04/27 03:41:35;;;;;;;11.80;7.25;;;;;;;;;;5013908;28;20033;-71
2023/04/27 03:44:01;;;;;;;10.07;6.88;;;;;;;;;;5013684;28;20026;-70
2023/04/27 03:46:26;;;;;;;11.35;6.45;;;;;;;;;;5014153;28;20029;-72
2023/04/27 03:48:51;;;;;;;8.77;6.30;;;;;;;;;;5012343;28;20045;-71
2023/04/27 03:51:17;;;;;;;10.77;6.25;;;;;;;;;;5008633;28;20139;-70
2023/04/27 03:53:42;;;;;;;11.13;6.20;;;;;;;;;;5006976;28;20121;-73
2023/04/27 03:56:07;;;;;;;9.52;5.85;;;;;;;;;;4999730;28;20032;-72
2023/04/27 03:58:33;;;;;;;8.32;5.35;;;;;;;;;;4998948;28;20321;-75
2023/04/27 04:00:58;;;;;;;16.38;10.65;;;;;;;;;;4998513;28;20481;-73
2023/04/27 04:03:23;;;;;;;12.98;7.20;;;;;;;;;;5003245;28;20106;-71
2023/04/27 04:05:49;;;;;;;10.88;6.03;;;;;;;;;;5000272;28;20108;-72
2023/04/27 04:08:14;;;;;;;9.85;6.68;;;;;;;;;;5008908;28;20334;-72
2023/04/27 04:10:39;;;;;;;11.32;6.57;;;;;;;;;;5011912;28;20045;-71
2023/04/27 04:13:05;;;;;;;12.77;7.53;;;;;;;;;;5014878;28;20026;-71
2023/04/27 04:15:31;;;;;;;11.23;7.57;;;;;;;;;;5013401;28;21326;-70
2023/04/27 04:17:56;;;;;;;22.75;13.00;;;;;;;;;;5012586;28;20026;-72
2023/04/27 04:20:21;;;;;;;30.63;23.48;;;;;;;;;;5014459;28;20030;-71
2023/04/27 04:22:47;;;;;;;41.35;32.95;;;;;;;;;;5013505;28;20032;-75
2023/04/27 04:25:12;;;;;;;93.72;73.80;;;;;;;;;;5009731;28;20496;-75
2023/04/27 04:27:38;;;;;;;45.50;35.95;;;;;;;;;;5009140;28;20333;-74
2023/04/27 04:30:04;;;;;;;32.38;25.45;;;;;;;;;;5014054;28;20404;-71
2023/04/27 04:32:30;;;;;;;36.08;28.48;;;;;;;;;;5010959;28;20026;-71
2023/04/27 04:34:56;;;;;;;15.25;10.52;;;;;;;;;;5010560;28;20028;-74
2023/04/27 04:37:22;;;;;;;11.80;6.97;;;;;;;;;;5014176;28;20033;-72
2023/04/27 04:39:47;;;;;;;24.73;17.33;;;;;;;;;;5010350;28;20037;-74
2023/04/27 04:42:12;;;;;;;314.17;231.15;;;;;;;;;;5011126;28;20030;-72
2023/04/27 04:44:38;;;;;;;57.40;37.20;;;;;;;;;;5016514;28;20041;-72
2023/04/27 04:47:03;;;;;;;42.83;23.58;;;;;;;;;;5011625;28;20029;-70
2023/04/27 04:49:29;;;;;;;43.92;30.45;;;;;;;;;;5011336;28;20025;-72
2023/04/27 04:51:54;;;;;;;52.55;38.55;;;;;;;;;;5012132;28;20040;-71
2023/04/27 04:54:20;;;;;;;55.25;42.55;;;;;;;;;;5016907;28;20065;-72
2023/04/27 04:56:45;;;;;;;38.17;25.58;;;;;;;;;;5014991;28;20053;-72
2023/04/27 04:59:10;;;;;;;99.10;66.45;;;;;;;;;;5014980;28;20420;-71
2023/04/27 05:01:36;;;;;;;119.85;73.15;;;;;;;;;;5015712;28;20055;-71
2023/04/27 05:04:01;;;;;;;33.42;21.83;;;;;;;;;;5015331;28;20072;-72
2023/04/27 05:06:26;;;;;;;36.92;28.58;;;;;;;;;;5016601;28;20033;-71
2023/04/27 05:08:52;;;;;;;65.03;42.45;;;;;;;;;;5018323;28;20116;-70
2023/04/27 05:11:17;;;;;;;60.47;45.35;;;;;;;;;;5012732;28;20038;-71
2023/04/27 05:13:42;;;;;;;53.17;38.92;;;;;;;;;;5006149;28;20432;-71
2023/04/27 05:16:08;;;;;;;76.30;52.65;;;;;;;;;;5014183;28;20025;-72
2023/04/27 05:18:34;;;;;;;37.00;22.85;;;;;;;;;;5014292;28;20411;-71
2023/04/27 05:21:00;;;;;;;30.80;19.75;;;;;;;;;;5016741;28;20036;-71
2023/04/27 05:23:25;;;;;;;26.20;19.02;;;;;;;;;;5016551;28;20038;-73
2023/04/27 05:25:50;;;;;;;27.48;19.95;;;;;;;;;;5016300;28;20445;-72
2023/04/27 05:28:16;;;;;;;23.52;18.60;;;;;;;;;;5015796;28;20132;-74
2023/04/27 05:30:41;;;;;;;17.92;14.35;;;;;;;;;;5012519;28;20535;-72
2023/04/27 05:33:06;;;;;;;18.10;13.48;;;;;;;;;;5016710;28;20086;-72
2023/04/27 05:35:32;;;;;;;20.98;14.95;;;;;;;;;;5013533;28;20185;-73
2023/04/27 05:37:57;;;;;;;12.10;8.23;;;;;;;;;;5015650;28;20025;-71
2023/04/27 05:40:23;;;;;;;28.55;18.85;;;;;;;;;;5015827;28;20033;-72
2023/04/27 05:42:48;;;;;;;15.48;10.07;;;;;;;;;;5012033;28;20037;-73
2023/04/27 05:45:14;;;;;;;12.35;9.73;;;;;;;;;;5006043;28;20413;-72
2023/04/27 05:47:39;;;;;;;9.45;6.25;;;;;;;;;;5011990;28;20104;-73
2023/04/27 05:50:05;;;;;;;8.27;5.80;;;;;;;;;;5014848;28;20029;-72
2023/04/27 05:52:30;;;;;;;13.30;7.53;;;;;;;;;;5013152;28;20623;-74
2023/04/27 05:54:57;;;;;;;8.30;6.70;;;;;;;;;;5014457;28;20421;-72
2023/04/27 05:57:22;;;;;;;10.02;5.60;;;;;;;;;;5015685;28;20082;-73
2023/04/27 05:59:48;;;;;;;12.90;6.85;;;;;;;;;;5014142;28;20340;-77
2023/04/27 06:02:13;;;;;;;12.77;7.82;;;;;;;;;;5012535;28;20026;-73
2023/04/27 06:04:38;;;;;;;8.35;5.63;;;;;;;;;;5016733;28;20025;-75
2023/04/27 06:07:10;;;;;;;6.65;4.43;;;;;;;;;;5014533;28;20024;-78
2023/04/27 06:09:36;;;;;;;8.88;5.28;;;;;;;;;;5011807;28;20037;-73
2023/04/27 06:12:03;;;;;;;6.65;4.80;;;;;;;;;;5001494;28;20039;-72
2023/04/27 06:14:28;;;;;;;6.97;4.22;;;;;;;;;;5002955;28;20397;-71
2023/04/27 06:16:54;;;;;;;12.13;4.90;;;;;;;;;;5000555;28;20030;-71
2023/04/27 06:19:19;;;;;;;7.70;5.35;;;;;;;;;;5001008;28;20455;-75
2023/04/27 06:21:45;;;;;;;6.75;3.97;;;;;;;;;;5003131;28;20033;-72
2023/04/27 06:24:10;;;;;;;8.07;6.20;;;;;;;;;;5002452;28;20030;-77
2023/04/27 06:26:36;;;;;;;12.63;4.82;;;;;;;;;;5002990;28;20030;-72
2023/04/27 06:29:03;;;;;;;7.47;5.72;;;;;;;;;;5001781;28;20574;-73
2023/04/27 06:31:28;;;;;;;8.02;4.45;;;;;;;;;;5002842;28;20447;-73
2023/04/27 06:33:53;;;;;;;11.57;5.32;;;;;;;;;;5001647;28;20077;-75
2023/04/27 06:36:19;;;;;;;8.70;4.68;;;;;;;;;;5000734;28;20036;-76
2023/04/27 06:38:45;;;;;;;9.15;4.45;;;;;;;;;;5001444;28;20078;-74
2023/04/27 06:41:10;;;;;;;6.25;3.35;;;;;;;;;;5004392;28;20030;-73
2023/04/27 06:43:35;;;;;;;5.57;3.67;;;;;;;;;;5014818;28;20025;-71
2023/04/27 06:46:01;;;;;;;7.93;4.05;;;;;;;;;;5015127;28;20025;-72
2023/04/27 06:48:27;;;;;;;8.38;4.40;;;;;;;;;;5007949;28;20041;-72
2023/04/27 06:50:52;;;;;;;4.90;3.10;;;;;;;;;;5002497;28;20045;-73
2023/04/27 06:53:17;;;;;;;8.85;3.95;;;;;;;;;;5002805;28;20040;-72
2023/04/27 06:55:43;;;;;;;6.60;3.80;;;;;;;;;;5000994;28;20018;-76
2023/04/27 06:58:08;;;;;;;6.97;3.20;;;;;;;;;;5002548;28;20036;-74
2023/04/27 07:00:34;;;;;;;5.78;3.22;;;;;;;;;;5001726;28;20037;-77
2023/04/27 07:02:59;;;;;;;5.22;3.15;;;;;;;;;;5001350;28;20561;-71
2023/04/27 07:05:25;;;;;;;6.82;4.30;;;;;;;;;;5001404;28;20034;-72
2023/04/27 07:07:50;;;;;;;14.90;8.70;;;;;;;;;;5002938;28;20029;-72
2023/04/27 07:10:16;;;;;;;15.18;8.25;;;;;;;;;;5001370;28;20405;-72
2023/04/27 07:12:41;;;;;;;7.00;4.95;;;;;;;;;;5002161;28;20035;-71
2023/04/27 07:15:07;;;;;;;9.13;5.03;;;;;;;;;;5000403;28;20089;-75
2023/04/27 07:17:33;;;;;;;8.52;5.05;;;;;;;;;;5001886;28;20033;-71
2023/04/27 07:20:00;;;;;;;9.32;5.50;;;;;;;;;;5002566;28;20041;-73
2023/04/27 07:22:25;;;;;;;10.48;5.03;;;;;;;;;;5001223;28;20025;-71
2023/04/27 07:24:51;;;;;;;7.85;5.75;;;;;;;;;;5002706;28;20075;-70
2023/04/27 07:27:16;;;;;;;9.18;5.35;;;;;;;;;;5002300;28;20038;-73
2023/04/27 07:29:42;;;;;;;7.13;4.30;;;;;;;;;;5001975;28;20081;-73
2023/04/27 07:32:07;;;;;;;7.30;4.13;;;;;;;;;;5001577;28;20180;-73
2023/04/27 07:34:33;;;;;;;12.25;5.35;;;;;;;;;;5000282;28;20032;-73
2023/04/27 07:37:00;;;;;;;7.60;3.95;;;;;;;;;;5005932;28;20468;-71
2023/04/27 07:39:25;;;;;;;12.88;6.93;;;;;;;;;;5015359;28;20072;-71
2023/04/27 07:41:51;;;;;;;6.00;3.83;;;;;;;;;;5013954;28;20433;-73
2023/04/27 07:44:17;;;;;;;15.02;6.55;;;;;;;;;;5013337;28;20109;-71
2023/04/27 07:46:42;;;;;;;11.35;6.30;;;;;;;;;;5015147;28;20021;-72
2023/04/27 07:49:08;;;;;;;6.20;4.65;;;;;;;;;;5003580;28;20955;-74
2023/04/27 07:51:33;;;;;;;13.27;4.78;;;;;;;;;;5014224;28;20087;-72
2023/04/27 07:53:59;;;;;;;6.25;3.47;;;;;;;;;;5013216;28;20026;-71
2023/04/27 07:56:24;;;;;;;8.52;5.35;;;;;;;;;;5007179;28;20951;-74
2023/04/27 07:58:50;;;;;;;9.27;4.72;;;;;;;;;;5010850;28;20029;-70
2023/04/27 08:01:16;;;;;;;13.73;8.02;;;;;;;;;;5014564;28;20096;-72
2023/04/27 08:03:41;;;;;;;13.70;7.88;;;;;;;;;;5013349;28;20379;-72
2023/04/27 08:06:06;;;;;;;36.00;6.75;;;;;;;;;;5010765;28;20090;-72
2023/04/27 08:08:32;;;;;;;11.60;6.10;;;;;;;;;;5014585;28;20078;-75
2023/04/27 08:10:57;;;;;;;10.57;6.80;;;;;;;;;;5012532;28;20085;-72
2023/04/27 08:13:23;;;;;;;23.83;14.30;;;;;;;;;;5011952;28;20034;-73
2023/04/27 08:15:49;;;;;;;12.90;8.93;;;;;;;;;;5011955;28;20046;-72
2023/04/27 08:18:16;;;;;;;18.48;10.02;;;;;;;;;;5002577;28;20038;-72
2023/04/27 08:20:42;;;;;;;15.88;9.02;;;;;;;;;;4999027;28;20038;-75
2023/04/27 08:23:07;;;;;;;18.05;10.70;;;;;;;;;;4998323;28;20040;-71
2023/04/27 08:25:34;;;;;;;15.57;12.15;;;;;;;;;;5000796;28;20039;-71
2023/04/27 08:27:59;;;;;;;8.80;5.80;;;;;;;;;;5000622;28;20056;-72
2023/04/27 08:30:25;;;;;;;6.13;3.22;;;;;;;;;;4997096;28;20038;-76
2023/04/27 08:32:50;;;;;;;7.95;5.78;;;;;;;;;;4995940;28;20032;-70
2023/04/27 08:35:15;;;;;;;8.88;6.72;;;;;;;;;;4996321;28;20445;-71
2023/04/27 08:37:41;;;;;;;8.18;5.38;;;;;;;;;;4999450;28;20044;-76
2023/04/27 08:40:07;;;;;;;10.93;9.60;;;;;;;;;;4999837;28;20065;-71
2023/04/27 08:42:32;;;;;;;12.02;7.90;;;;;;;;;;5000574;28;20038;-73
2023/04/27 08:44:58;;;;;;;11.65;8.20;;;;;;;;;;4999645;28;20025;-72
2023/04/27 08:47:23;;;;;;;7.45;3.80;;;;;;;;;;4999054;28;20466;-71
2023/04/27 08:49:49;;;;;;;7.63;6.03;;;;;;;;;;5000114;28;20441;-73
2023/04/27 08:52:15;;;;;;;13.25;7.05;;;;;;;;;;4996373;28;20914;-72
2023/04/27 08:54:40;;;;;;;11.10;7.50;;;;;;;;;;5000292;28;20027;-72
2023/04/27 08:57:10;;;;;;;8.32;5.75;;;;;;;;;;4998227;28;20034;-75
2023/04/27 08:59:36;;;;;;;8.07;4.65;;;;;;;;;;4999494;28;20041;-74
2023/04/27 09:02:02;;;;;;;10.63;6.53;;;;;;;;;;5000978;28;20102;-73
2023/04/27 09:04:40;;;;;;;5.60;4.13;;;;;;;;;;4999470;28;20425;-73
2023/04/27 09:07:23;;;;;;;7.60;4.75;;;;;;;;;;4999493;28;20026;-71
2023/04/27 09:09:49;;;;;;;8.45;4.70;;;;;;;;;;5000269;28;20029;-72
2023/04/27 09:12:14;;;;;;;14.25;10.13;;;;;;;;;;4998739;28;20028;-71
2023/04/27 09:14:40;;;;;;;9.02;4.28;;;;;;;;;;5010580;28;20063;-73
2023/04/27 09:17:05;;;;;;;7.15;3.67;;;;;;;;;;5014852;28;20337;-71
2023/04/27 09:19:31;;;;;;;6.65;5.25;;;;;;;;;;5013398;28;20026;-75
2023/04/27 09:22:03;;;;;;;4.53;4.07;;;;;;;;;;5012413;28;20026;-73
2023/04/27 09:24:28;;;;;;;5.40;3.70;;;;;;;;;;5012387;28;20021;-71
2023/04/27 09:26:53;;;;;;;8.23;3.95;;;;;;;;;;5012885;28;20040;-71
2023/04/27 09:29:19;;;;;;;7.38;4.15;;;;;;;;;;5012418;28;20054;-72
2023/04/27 09:31:44;;;;;;;4.97;2.70;;;;;;;;;;5012975;28;20444;-70
2023/04/27 09:34:10;;;;;;;11.45;5.00;;;;;;;;;;5011988;28;20021;-70
2023/04/27 09:36:35;;;;;;;8.25;5.88;;;;;;;;;;5014225;28;20065;-71
2023/04/27 09:39:04;;;;;;;9.70;7.25;;;;;;;;;;5013767;28;20348;-75
2023/04/27 09:41:30;;;;;;;20.33;12.38;;;;;;;;;;5011456;28;20130;-71
2023/04/27 09:43:56;;;;;;;10.05;5.70;;;;;;;;;;5004005;28;20455;-76
2023/04/27 09:46:21;;;;;;;10.98;6.47;;;;;;;;;;5004281;28;20021;-72
2023/04/27 09:48:48;;;;;;;7.78;5.18;;;;;;;;;;5002761;28;20034;-74
2023/04/27 09:51:13;;;;;;;7.05;4.45;;;;;;;;;;5004104;28;20629;-72
2023/04/27 09:53:56;;;;;;;9.10;6.05;;;;;;;;;;5002966;28;20090;-73
2023/04/27 09:56:35;;;;;;;6.15;4.90;;;;;;;;;;5003310;28;20035;-72
2023/04/27 09:59:00;;;;;;;6.90;4.43;;;;;;;;;;5000637;28;20029;-74
2023/04/27 10:01:35;;;;;;;8.40;6.57;;;;;;;;;;5003264;28;20470;-73
2023/04/27 10:04:19;;;;;;;10.30;7.65;;;;;;;;;;5003027;28;20397;-71
2023/04/27 10:07:05;;;;;;;5.25;3.47;;;;;;;;;;5001449;28;20026;-71
2023/04/27 10:09:39;;;;;;;7.93;6.10;;;;;;;;;;5009048;28;20371;-72
2023/04/27 10:12:23;;;;;;;9.05;6.88;;;;;;;;;;5004270;28;20061;-71
2023/04/27 10:14:56;;;;;;;8.27;6.13;;;;;;;;;;5010561;28;20044;-73
2023/04/27 10:17:28;;;;;;;5.60;4.35;;;;;;;;;;5002252;28;20025;-72
2023/04/27 10:19:58;;;;;;;7.88;5.65;;;;;;;;;;5002722;28;20060;-75
2023/04/27 10:22:23;;;;;;;7.40;6.15;;;;;;;;;;5002863;28;20519;-72
2023/04/27 10:24:50;;;;;;;6.60;4.30;;;;;;;;;;5002267;28;20041;-72
2023/04/27 10:27:21;;;;;;;8.32;4.50;;;;;;;;;;5002654;28;20029;-72
2023/04/27 10:29:47;;;;;;;6.45;3.55;;;;;;;;;;5006065;28;20045;-71
2023/04/27 10:32:22;;;;;;;5.57;2.92;;;;;;;;;;5011903;28;20073;-73
2023/04/27 10:34:48;;;;;;;5.82;3.95;;;;;;;;;;5001949;28;20135;-77
2023/04/27 10:37:14;;;;;;;8.63;4.40;;;;;;;;;;5001924;28;20112;-71
2023/04/27 10:39:40;;;;;;;11.18;7.47;;;;;;;;;;5003134;28;20082;-74
2023/04/27 10:42:07;;;;;;;10.70;5.43;;;;;;;;;;5001868;28;20102;-75
2023/04/27 10:44:33;;;;;;;5.57;3.55;;;;;;;;;;5002979;28;22054;-72
2023/04/27 10:47:00;;;;;;;8.70;5.78;;;;;;;;;;5002897;28;20104;-71
2023/04/27 10:49:29;;;;;;;9.80;7.38;;;;;;;;;;5001885;28;20147;-71
2023/04/27 10:51:56;;;;;;;6.23;4.43;;;;;;;;;;4997060;28;20025;-72
2023/04/27 10:54:24;;;;;;;7.10;5.03;;;;;;;;;;5003557;28;20150;-74
2023/04/27 10:56:50;;;;;;;13.65;8.07;;;;;;;;;;4999025;28;20026;-72
2023/04/27 10:59:16;;;;;;;7.35;5.07;;;;;;;;;;5002259;28;20094;-75
2023/04/27 11:01:41;;;;;;;7.45;4.93;;;;;;;;;;5000388;28;20029;-73
2023/04/27 11:04:07;;;;;;;7.40;4.68;;;;;;;;;;5002062;28;20112;-76
2023/04/27 11:06:40;;;;;;;4.30;3.90;;;;;;;;;;5003593;28;20036;-72
2023/04/27 11:09:06;;;;;;;6.55;4.80;;;;;;;;;;5002179;28;20024;-72
2023/04/27 11:11:31;;;;;;;5.72;4.40;;;;;;;;;;5011188;28;20025;-72
2023/04/27 11:13:57;;;;;;;5.18;4.03;;;;;;;;;;5015347;28;20021;-78
2023/04/27 11:16:22;;;;;;;8.38;5.15;;;;;;;;;;5013333;28;20447;-73
2023/04/27 11:18:47;;;;;;;7.32;4.63;;;;;;;;;;5013486;28;20025;-72
2023/04/27 11:21:14;;;;;;;8.60;5.30;;;;;;;;;;5011152;28;20360;-74
2023/04/27 11:23:40;;;;;;;9.48;7.13;;;;;;;;;;5014324;28;20057;-72
2023/04/27 11:26:11;;;;;;;6.43;4.20;;;;;;;;;;5012543;28;20056;-73
2023/04/27 11:28:37;;;;;;;12.20;9.32;;;;;;;;;;4997898;28;20049;-73
2023/04/27 11:31:05;;;;;;;9.25;6.00;;;;;;;;;;4999436;28;20038;-76
2023/04/27 11:33:31;;;;;;;7.88;5.80;;;;;;;;;;5005151;28;20061;-73
2023/04/27 11:35:57;;;;;;;9.27;5.45;;;;;;;;;;5015160;28;20392;-73
2023/04/27 11:38:22;;;;;;;12.63;8.27;;;;;;;;;;5008018;28;20037;-75
2023/04/27 11:41:04;;;;;;;12.50;8.15;;;;;;;;;;5000167;28;20037;-73
2023/04/27 11:43:29;;;;;;;16.75;8.77;;;;;;;;;;5002308;28;20048;-73
2023/04/27 11:45:55;;;;;;;10.05;6.72;;;;;;;;;;5000575;28;20352;-75
2023/04/27 11:48:25;;;;;;;13.77;9.05;;;;;;;;;;5001711;28;20031;-76
2023/04/27 11:50:52;;;;;;;15.52;9.95;;;;;;;;;;5002964;28;20026;-73
2023/04/27 11:53:28;;;;;;;12.57;7.70;;;;;;;;;;5015332;28;20086;-72
2023/04/27 11:55:53;;;;;;;8.77;6.32;;;;;;;;;;5005848;28;20022;-74
2023/04/27 11:58:19;;;;;;;9.88;6.18;;;;;;;;;;5002501;28;20101;-75
2023/04/27 12:00:46;;;;;;;9.95;7.97;;;;;;;;;;4999622;28;20463;-75
2023/04/27 12:03:11;;;;;;;6.15;5.55;;;;;;;;;;5003370;28;20029;-71
2023/04/27 12:05:46;;;;;;;11.48;8.18;;;;;;;;;;5012179;28;20393;-74
2023/04/27 12:08:11;;;;;;;8.30;6.85;;;;;;;;;;5013159;28;20046;-73
2023/04/27 12:10:37;;;;;;;6.07;5.00;;;;;;;;;;5010078;28;20317;-73
2023/04/27 12:13:02;;;;;;;7.75;5.30;;;;;;;;;;5003455;28;20053;-72
2023/04/27 12:15:27;;;;;;;11.10;7.40;;;;;;;;;;5013028;28;20033;-72
2023/04/27 12:17:53;;;;;;;11.43;7.80;;;;;;;;;;5011812;28;20037;-75
2023/04/27 12:20:18;;;;;;;12.93;8.75;;;;;;;;;;5011879;28;20059;-73
2023/04/27 12:22:44;;;;;;;6.93;5.93;;;;;;;;;;5013107;28;20034;-76
2023/04/27 12:25:09;;;;;;;6.50;5.55;;;;;;;;;;5013540;28;20033;-74
2023/04/27 12:27:34;;;;;;;7.95;5.55;;;;;;;;;;5014647;28;20090;-75
2023/04/27 12:30:00;;;;;;;10.57;7.57;;;;;;;;;;5012339;28;20043;-73
2023/04/27 12:32:26;;;;;;;9.57;6.53;;;;;;;;;;5012545;28;20028;-73
2023/04/27 12:34:52;;;;;;;11.40;9.68;;;;;;;;;;5011314;28;20124;-72
2023/04/27 12:37:17;;;;;;;5.25;4.25;;;;;;;;;;5011980;28;20018;-73
2023/04/27 12:39:42;;;;;;;5.22;4.45;;;;;;;;;;5012970;28;20513;-72
2023/04/27 12:42:08;;;;;;;6.07;4.60;;;;;;;;;;5010525;28;20580;-77
2023/04/27 12:44:33;;;;;;;5.97;4.30;;;;;;;;;;5014799;28;20435;-73
2023/04/27 12:46:58;;;;;;;6.28;4.65;;;;;;;;;;5011784;28;20026;-73
2023/04/27 12:49:24;;;;;;;8.07;6.28;;;;;;;;;;4997660;28;20046;-76
2023/04/27 12:51:50;;;;;;;16.52;12.55;;;;;;;;;;4997536;28;20034;-73
2023/04/27 12:54:16;;;;;;;11.20;7.85;;;;;;;;;;4997703;28;20025;-72
2023/04/27 12:56:41;;;;;;;9.55;5.65;;;;;;;;;;4996629;28;20379;-72
2023/04/27 12:59:06;;;;;;;5.88;4.97;;;;;;;;;;4998037;28;20036;-77
2023/04/27 13:01:32;;;;;;;7.93;4.65;;;;;;;;;;5011057;28;20321;-74
2023/04/27 13:03:58;;;;;;;6.93;5.25;;;;;;;;;;5010803;28;20130;-76
2023/04/27 13:06:24;;;;;;;10.55;6.80;;;;;;;;;;5013649;28;20082;-74
2023/04/27 13:08:49;;;;;;;6.25;4.43;;;;;;;;;;5012129;28;20033;-72
2023/04/27 13:11:15;;;;;;;4.97;4.25;;;;;;;;;;5010041;28;20072;-72
2023/04/27 13:13:41;;;;;;;9.48;7.13;;;;;;;;;;5011969;28;20340;-73
2023/04/27 13:16:06;;;;;;;12.82;9.73;;;;;;;;;;5016255;28;20474;-73
2023/04/27 13:18:32;;;;;;;10.40;7.82;;;;;;;;;;5015724;28;20442;-73
2023/04/27 13:20:57;;;;;;;9.20;6.93;;;;;;;;;;5014131;28;20090;-70
2023/04/27 13:23:23;;;;;;;9.00;7.88;;;;;;;;;;5018119;28;20093;-74
2023/04/27 13:25:48;;;;;;;8.07;6.40;;;;;;;;;;5015161;28;20038;-71
2023/04/27 13:28:14;;;;;;;9.40;6.10;;;;;;;;;;5016674;28;20464;-71
2023/04/27 13:30:39;;;;;;;5.68;4.40;;;;;;;;;;5017113;28;20029;-71
2023/04/27 13:33:05;;;;;;;7.30;3.58;;;;;;;;;;5016100;28;20041;-71
2023/04/27 13:35:30;;;;;;;5.90;3.88;;;;;;;;;;5016588;28;20459;-71
2023/04/27 13:37:56;;;;;;;4.90;3.42;;;;;;;;;;5011922;28;20025;-75
2023/04/27 13:40:21;;;;;;;6.03;5.07;;;;;;;;;;5008103;28;20033;-72
2023/04/27 13:42:46;;;;;;;10.93;6.95;;;;;;;;;;5015091;28;20383;-72
2023/04/27 13:45:12;;;;;;;7.88;6.20;;;;;;;;;;5017119;28;20311;-74
2023/04/27 13:47:40;;;;;;;4.80;4.18;;;;;;;;;;5015080;28;20021;-73
2023/04/27 13:50:07;;;;;;;8.50;6.30;;;;;;;;;;5015771;28;20044;-72
2023/04/27 13:52:36;;;;;;;10.60;6.20;;;;;;;;;;5014512;28;20026;-74
2023/04/27 13:55:03;;;;;;;9.65;7.00;;;;;;;;;;5015574;28;20033;-73
2023/04/27 13:57:28;;;;;;;7.28;5.70;;;;;;;;;;5008896;28;20150;-72
2023/04/27 13:59:53;;;;;;;13.60;8.70;;;;;;;;;;5003949;28;20437;-72
2023/04/27 14:02:19;;;;;;;9.80;8.48;;;;;;;;;;5004035;28;20048;-72
2023/04/27 14:04:44;;;;;;;11.27;9.23;;;;;;;;;;5011208;28;20690;-71
2023/04/27 14:07:09;;;;;;;19.55;13.48;;;;;;;;;;5013126;28;20108;-72
2023/04/27 14:09:35;;;;;;;19.63;14.20;;;;;;;;;;5015135;28;20058;-72
2023/04/27 14:12:01;;;;;;;9.27;6.80;;;;;;;;;;5015443;28;20370;-78
2023/04/27 14:14:27;;;;;;;15.65;9.95;;;;;;;;;;5008051;28;20344;-76
2023/04/27 14:16:53;;;;;;;20.73;16.45;;;;;;;;;;5011936;28;20025;-74
2023/04/27 14:19:19;;;;;;;9.85;7.93;;;;;;;;;;5013484;28;20372;-72
2023/04/27 14:21:45;;;;;;;5.97;5.40;;;;;;;;;;5014679;28;20034;-72
2023/04/27 14:24:11;;;;;;;12.65;11.35;;;;;;;;;;5014371;28;20355;-73
2023/04/27 14:26:36;;;;;;;11.63;8.23;;;;;;;;;;5013001;28;20031;-72